»·PEaware :: N3452E KMRY-KVNY

N3452E :: KMRY-KVNY

FLIGHT INFORMATION

Flight Status: Arrived
Operator: Privately registered:
United States
More flights under this callsign
Pilot: John C. (27555)
Aircraft: PILATUS PC-12 EAGLE
(PC12)
More flights by this aircraft type
Origin: KMRY Monterey Peninsula
United States
Destination: KVNY Van Nuys
United States
More flights between these airports :: More routes between these airports
Route: MRY5 SHOEY SNS T259 AVE FERN7
File this flight plan on PilotEdge
Remarks:
Altitude:
(Current/Filed)
17,000ft
Speed:
(Current/Filed)
250kts
Departed: 13-Jan-21 08:55 PM
Arrived: 13-Jan-21 09:57 PM
Distance/Time
Traveled:
218nm/1:02
Distance/Time
To Go:
Arrived

Flight Plot

Page will automatically refresh every two minutes.

Flight plan parsing failed; only flown route is shown


Map Options




Map Legend


Flown Route
Filed Route
Departure Airport
Arrival Airport
Navaid (VOR, NDB)
Fix

Horizontal Profiles

Position Reports

Time Latitude Longitude Heading Altitude Ground
Speed
13-Jan-21 20:34 36.588725 -121.855671 345 259ft 0kts
13-Jan-21 20:35 36.588725 -121.855671 345 259ft 0kts
13-Jan-21 20:36 36.588725 -121.855671 345 259ft 0kts
13-Jan-21 20:37 36.588725 -121.855671 345 259ft 0kts
13-Jan-21 20:38 36.588725 -121.855671 345 259ft 0kts
13-Jan-21 20:39 36.588725 -121.855671 345 259ft 0kts
13-Jan-21 20:40 36.588725 -121.855671 345 259ft 0kts
13-Jan-21 20:41 36.588725 -121.855671 345 259ft 0kts
13-Jan-21 20:42 36.588725 -121.855671 345 259ft 0kts
13-Jan-21 20:43 36.588725 -121.855671 345 259ft 0kts
13-Jan-21 20:44 36.588725 -121.855671 345 259ft 0kts
13-Jan-21 20:45 36.588725 -121.855671 345 259ft 0kts
13-Jan-21 20:46 36.588725 -121.855671 345 259ft 0kts
13-Jan-21 20:47 36.588725 -121.855671 345 259ft 0kts
13-Jan-21 20:48 36.589140 -121.855569 41 259ft 7kts
13-Jan-21 20:49 36.588524 -121.851419 113 259ft 15kts
13-Jan-21 20:50 36.586557 -121.845787 120 259ft 19kts
13-Jan-21 20:51 36.584266 -121.839124 114 259ft 21kts
13-Jan-21 20:52 36.583245 -121.836705 122 259ft 0kts
13-Jan-21 20:53 36.582817 -121.834745 93 259ft 7kts
13-Jan-21 20:54 36.587174 -121.844819 292 278ft 125kts
13-Jan-21 20:55 36.609011 -121.889357 337 1804ft 179kts
13-Jan-21 20:56 36.656075 -121.910902 341 3612ft 180kts
13-Jan-21 20:57 36.701518 -121.932904 322 5405ft 173kts
13-Jan-21 20:58 36.682124 -121.965571 140 7299ft 173kts
13-Jan-21 20:59 36.673819 -121.910132 88 9104ft 170kts
13-Jan-21 21:00 36.671856 -121.850320 87 10827ft 177kts
13-Jan-21 21:01 36.669894 -121.787490 87 12364ft 185kts
13-Jan-21 21:02 36.667839 -121.722678 86 13937ft 190kts
13-Jan-21 21:03 36.665697 -121.656039 85 15419ft 196kts
13-Jan-21 21:04 36.656663 -121.587996 117 16743ft 213kts
13-Jan-21 21:05 36.614382 -121.525064 125 16995ft 261kts
13-Jan-21 21:07 36.566271 -121.452538 126 16992ft 277kts
13-Jan-21 21:08 36.516966 -121.378259 126 16994ft 280kts
13-Jan-21 21:09 36.467180 -121.303367 126 16975ft 281kts
13-Jan-21 21:10 36.417406 -121.228684 126 16972ft 280kts
13-Jan-21 21:11 36.367663 -121.154209 126 16976ft 281kts
13-Jan-21 21:12 36.317595 -121.079399 126 16978ft 283kts
13-Jan-21 21:13 36.267009 -121.003979 126 16981ft 285kts
13-Jan-21 21:14 36.216014 -120.928106 126 16983ft 287kts
13-Jan-21 21:15 36.164723 -120.851975 126 16984ft 288kts
13-Jan-21 21:16 36.113351 -120.775896 126 16985ft 289kts
13-Jan-21 21:17 36.073509 -120.691300 111 16985ft 284kts
13-Jan-21 21:18 36.038025 -120.604093 111 16985ft 284kts
13-Jan-21 21:19 35.992945 -120.522902 124 16986ft 288kts
13-Jan-21 21:20 35.943500 -120.444705 123 16988ft 288kts
13-Jan-21 21:21 35.894276 -120.366867 123 16986ft 289kts
13-Jan-21 21:21 35.853117 -120.301911 124 16980ft 288kts
13-Jan-21 21:23 35.795639 -120.211414 124 16980ft 287kts
13-Jan-21 21:24 35.746323 -120.133934 124 16984ft 287kts
13-Jan-21 21:24 35.705223 -120.069546 124 16983ft 287kts
13-Jan-21 21:26 35.647374 -119.980125 131 17071ft 288kts
13-Jan-21 21:26 35.593105 -119.931497 143 17081ft 291kts
13-Jan-21 21:27 35.526905 -119.874516 142 17091ft 291kts
13-Jan-21 21:28 35.460471 -119.817169 142 17093ft 292kts
13-Jan-21 21:29 35.394211 -119.760091 142 17107ft 291kts
13-Jan-21 21:30 35.327670 -119.702879 142 17093ft 292kts
13-Jan-21 21:31 35.261037 -119.645726 142 17064ft 293kts
13-Jan-21 21:32 35.194419 -119.588678 142 17060ft 292kts
13-Jan-21 21:33 35.127838 -119.531780 142 17086ft 292kts
13-Jan-21 21:34 35.061443 -119.475171 142 17095ft 292kts
13-Jan-21 21:35 34.994839 -119.418492 142 17074ft 292kts
13-Jan-21 21:36 34.928527 -119.362168 142 17056ft 288kts
13-Jan-21 21:37 34.863350 -119.306919 143 17057ft 283kts
13-Jan-21 21:38 34.798258 -119.251881 143 16533ft 292kts
13-Jan-21 21:39 34.735053 -119.198572 143 15508ft 267kts
13-Jan-21 21:40 34.675047 -119.147960 143 14497ft 260kts
13-Jan-21 21:41 34.616161 -119.098422 143 13494ft 256kts
13-Jan-21 21:42 34.558008 -119.049581 143 12489ft 252kts
13-Jan-21 21:43 34.500536 -119.001417 143 11487ft 250kts
13-Jan-21 21:44 34.463778 -118.936752 112 10338ft 219kts
13-Jan-21 21:45 34.438344 -118.872800 112 9131ft 206kts
13-Jan-21 21:46 34.413829 -118.811165 112 7929ft 200kts
13-Jan-21 21:47 34.390036 -118.750796 112 6647ft 200kts
13-Jan-21 21:48 34.366523 -118.689703 112 5311ft 197kts
13-Jan-21 21:49 34.342197 -118.634607 132 4471ft 169kts
13-Jan-21 21:50 34.315802 -118.598499 105 3812ft 125kts
13-Jan-21 21:51 34.304548 -118.561270 107 3909ft 119kts
13-Jan-21 21:52 34.288628 -118.526582 128 3549ft 119kts
13-Jan-21 21:53 34.263980 -118.501211 148 2550ft 114kts
13-Jan-21 21:54 34.232814 -118.492556 174 1447ft 108kts
13-Jan-21 21:55 34.207655 -118.490141 174 805ft 47kts
13-Jan-21 21:56 34.202795 -118.491341 9 805ft 8kts

Navigation Log

Ident Type
Flight plan parsing failed, navigation log unavailable